Time;durP1;ratioP1;P1;durP2;ratioP2;P2;SDS_P1;SDS_P2;PMS_P1;PMS_P2;Temp;Humidity;BMP_temperature;BMP_pressure;BME280_temperature;BME280_humidity;BME280_pressure;Samples;Min_cycle;Max_cycle;Signal;HPM_P1;HPM_P2
2022/12/07 00:01:20;;;;;;;11.77;7.15;;;5.80;80.00;;;;;;5058085;28;20232;-70
2022/12/07 00:03:51;;;;;;;13.40;7.82;;;5.70;80.10;;;;;;5058297;28;20223;-69
2022/12/07 00:06:21;;;;;;;15.15;8.80;;;5.70;80.10;;;;;;5060645;28;20544;-70
2022/12/07 00:08:49;;;;;;;18.15;8.88;;;5.70;80.10;;;;;;5059058;28;20233;-70
2022/12/07 00:11:19;;;;;;;14.23;8.73;;;5.70;80.10;;;;;;5056483;28;20273;-69
2022/12/07 00:13:51;;;;;;;12.98;8.55;;;5.70;80.10;;;;;;5055762;28;20200;-69
2022/12/07 00:16:21;;;;;;;14.82;9.00;;;5.70;80.20;;;;;;5068435;28;20266;-71
2022/12/07 00:18:51;;;;;;;15.27;8.95;;;5.70;80.10;;;;;;5053149;28;20208;-71
2022/12/07 00:21:20;;;;;;;17.05;9.60;;;5.70;80.20;;;;;;5053353;28;20204;-70
2022/12/07 00:23:50;;;;;;;21.60;10.88;;;5.70;80.20;;;;;;5055869;28;20209;-70
2022/12/07 00:26:20;;;;;;;17.08;10.48;;;5.70;80.10;;;;;;5055474;28;20269;-71
2022/12/07 00:28:48;;;;;;;16.80;10.32;;;5.70;80.20;;;;;;5058564;28;20200;-70
2022/12/07 00:31:18;;;;;;;19.95;11.00;;;5.70;80.20;;;;;;5057393;28;21481;-70
2022/12/07 00:33:47;;;;;;;18.75;11.85;;;5.70;80.30;;;;;;5055741;28;20753;-69
2022/12/07 00:36:18;;;;;;;19.48;11.75;;;5.80;80.30;;;;;;5057100;28;20233;-69
2022/12/07 00:38:54;;;;;;;17.00;10.40;;;5.80;80.20;;;;;;5056364;28;20247;-69
2022/12/07 00:41:24;;;;;;;22.75;11.50;;;5.80;80.30;;;;;;5054688;28;20203;-70
2022/12/07 00:43:53;;;;;;;18.92;10.73;;;5.80;80.30;;;;;;5057064;28;20216;-69
2022/12/07 00:46:22;;;;;;;19.42;11.00;;;5.80;80.40;;;;;;5059678;28;20690;-69
2022/12/07 00:48:51;;;;;;;19.08;11.18;;;5.80;80.40;;;;;;5060103;28;20203;-70
2022/12/07 00:51:22;;;;;;;19.08;10.98;;;5.80;80.30;;;;;;5057279;28;20212;-70
2022/12/07 00:53:50;;;;;;;20.95;10.93;;;5.80;80.40;;;;;;5060690;28;20197;-70
2022/12/07 00:56:21;;;;;;;14.15;9.30;;;5.80;80.40;;;;;;5059934;28;20292;-70
2022/12/07 00:58:53;;;;;;;16.60;9.85;;;5.90;80.50;;;;;;5059947;28;20204;-70
2022/12/07 01:01:21;;;;;;;16.30;10.00;;;5.90;80.40;;;;;;5056902;28;20281;-70
2022/12/07 01:03:49;;;;;;;16.10;9.23;;;5.90;80.40;;;;;;5056504;28;20208;-70
2022/12/07 01:06:20;;;;;;;19.45;9.77;;;5.90;80.40;;;;;;5055998;28;20224;-69
2022/12/07 01:08:48;;;;;;;17.55;11.05;;;5.90;80.40;;;;;;5059874;28;20200;-70
2022/12/07 01:11:18;;;;;;;19.17;11.70;;;5.90;80.30;;;;;;5056340;28;20204;-70
2022/12/07 01:13:46;;;;;;;23.83;11.10;;;5.90;80.30;;;;;;5055237;28;20609;-70
2022/12/07 01:16:16;;;;;;;21.60;11.38;;;5.90;80.30;;;;;;5059379;28;20294;-70
2022/12/07 01:18:48;;;;;;;21.65;11.70;;;5.80;80.30;;;;;;5058997;28;20257;-69
2022/12/07 01:21:20;;;;;;;19.50;11.45;;;5.80;80.30;;;;;;5056244;28;20204;-69
2022/12/07 01:23:50;;;;;;;20.77;13.23;;;5.80;80.40;;;;;;5058728;28;20727;-68
2022/12/07 01:26:20;;;;;;;21.45;11.95;;;5.80;80.40;;;;;;5058235;28;20228;-69
2022/12/07 01:28:48;;;;;;;18.42;11.20;;;5.80;80.40;;;;;;5061315;28;20278;-69
2022/12/07 01:31:18;;;;;;;19.55;11.95;;;5.80;80.40;;;;;;5051381;28;20201;-69
2022/12/07 01:33:49;;;;;;;21.00;12.15;;;5.80;80.40;;;;;;5058153;28;20215;-71
2022/12/07 01:36:20;;;;;;;19.73;11.90;;;5.80;80.40;;;;;;5056857;28;20708;-71
2022/12/07 01:38:52;;;;;;;20.02;11.00;;;5.80;80.40;;;;;;5055754;28;20208;-69
2022/12/07 01:41:21;;;;;;;23.05;12.10;;;5.80;80.40;;;;;;5056713;28;20204;-68
2022/12/07 01:44:10;;;;;;;21.73;12.32;;;5.80;80.40;;;;;;5053360;28;20690;-71
2022/12/07 01:46:38;;;;;;;21.48;11.10;;;5.80;80.40;;;;;;5055492;28;20637;-70
2022/12/07 01:49:09;;;;;;;17.92;10.98;;;5.80;80.40;;;;;;5056553;28;20227;-70
2022/12/07 01:51:40;;;;;;;19.80;11.95;;;5.80;80.40;;;;;;5053731;28;20200;-70
2022/12/07 01:54:11;;;;;;;19.67;10.85;;;5.80;80.40;;;;;;5056177;28;20845;-71
2022/12/07 01:56:41;;;;;;;16.77;10.25;;;5.80;80.40;;;;;;5055087;28;20211;-70
2022/12/07 01:59:09;;;;;;;18.42;10.77;;;5.80;80.40;;;;;;5059788;28;20200;-70
2022/12/07 02:01:37;;;;;;;21.42;11.27;;;5.80;80.40;;;;;;5054089;28;20270;-70
2022/12/07 02:04:06;;;;;;;19.08;11.43;;;5.80;80.40;;;;;;5057547;28;20224;-70
2022/12/07 02:06:36;;;;;;;24.95;12.38;;;5.80;80.50;;;;;;5057161;28;20693;-69
2022/12/07 02:09:05;;;;;;;19.77;12.57;;;5.80;80.50;;;;;;5056348;28;20837;-70
2022/12/07 02:11:34;;;;;;;17.15;10.70;;;5.80;80.50;;;;;;5056967;28;20604;-69
2022/12/07 02:14:03;;;;;;;22.02;12.10;;;5.80;80.50;;;;;;5055243;28;20208;-69
2022/12/07 02:16:38;;;;;;;20.67;12.05;;;5.80;80.50;;;;;;5055195;28;20854;-70
2022/12/07 02:19:40;;;;;;;19.35;11.90;;;5.90;80.50;;;;;;5058628;28;20200;-70
2022/12/07 02:22:25;;;;;;;20.58;11.65;;;5.90;80.50;;;;;;5055046;28;20207;-69
2022/12/07 02:24:58;;;;;;;19.55;10.52;;;5.90;80.40;;;;;;5048154;28;20224;-71
2022/12/07 02:27:47;;;;;;;19.77;12.50;;;5.80;80.30;;;;;;5055327;28;20681;-70
2022/12/07 02:30:19;;;;;;;18.92;11.52;;;5.80;80.30;;;;;;5053525;28;20204;-69
2022/12/07 02:32:55;;;;;;;23.50;11.57;;;5.80;80.30;;;;;;5055272;28;20270;-71
2022/12/07 02:35:31;;;;;;;20.42;11.77;;;5.80;80.40;;;;;;5052312;28;20231;-69
2022/12/07 02:38:06;;;;;;;22.23;11.90;;;5.80;80.50;;;;;;5059892;28;20184;-69
2022/12/07 02:40:39;;;;;;;22.40;12.48;;;5.80;80.50;;;;;;5051455;28;20208;-69
2022/12/07 02:43:11;;;;;;;20.33;11.65;;;5.80;80.50;;;;;;5052637;28;20191;-71
2022/12/07 02:45:43;;;;;;;23.75;12.50;;;5.80;80.50;;;;;;5068201;28;20236;-70
2022/12/07 02:48:14;;;;;;;21.52;11.70;;;5.80;80.50;;;;;;5054703;28;20231;-70
2022/12/07 02:50:45;;;;;;;19.50;11.35;;;5.80;80.40;;;;;;5054028;28;20209;-70
2022/12/07 02:53:29;;;;;;;19.77;11.77;;;5.80;80.30;;;;;;5053306;28;20203;-70
2022/12/07 02:55:57;;;;;;;23.08;12.25;;;5.80;80.40;;;;;;5056296;28;20695;-70
2022/12/07 02:58:34;;;;;;;18.10;10.48;;;5.80;80.40;;;;;;5051883;28;20349;-70
2022/12/07 03:01:16;;;;;;;19.00;11.50;;;5.80;80.50;;;;;;5055280;28;20281;-70
2022/12/07 03:03:53;;;;;;;20.45;12.25;;;5.80;80.40;;;;;;5056474;28;20204;-70
2022/12/07 03:06:28;;;;;;;17.88;9.73;;;5.80;80.40;;;;;;5053522;28;20235;-71
2022/12/07 03:09:06;;;;;;;19.45;11.10;;;5.80;80.50;;;;;;5066059;28;20276;-70
2022/12/07 03:11:43;;;;;;;18.45;11.13;;;5.80;80.50;;;;;;5052854;28;20196;-69
2022/12/07 03:14:17;;;;;;;19.33;11.63;;;5.80;80.40;;;;;;5050986;28;20678;-70
2022/12/07 03:16:53;;;;;;;18.90;10.73;;;5.80;80.40;;;;;;5050648;28;20290;-69
2022/12/07 03:19:24;;;;;;;20.00;10.60;;;5.80;80.40;;;;;;5057336;28;20277;-70
2022/12/07 03:21:57;;;;;;;20.98;11.00;;;5.80;80.40;;;;;;5056875;28;20196;-69
2022/12/07 03:24:29;;;;;;;18.25;11.02;;;5.80;80.40;;;;;;5058287;28;20220;-70
2022/12/07 03:27:03;;;;;;;20.90;10.98;;;5.80;80.40;;;;;;5056109;28;20226;-70
2022/12/07 03:29:41;;;;;;;19.60;11.25;;;5.80;80.40;;;;;;5057548;28;20227;-70
2022/12/07 03:32:15;;;;;;;22.80;12.88;;;5.80;80.40;;;;;;5057101;28;20206;-71
2022/12/07 03:34:49;;;;;;;20.55;11.68;;;5.80;80.30;;;;;;5054088;28;20783;-70
2022/12/07 03:37:24;;;;;;;21.38;12.70;;;5.70;80.40;;;;;;5056322;28;20733;-69
2022/12/07 03:40:01;;;;;;;27.75;12.73;;;5.70;80.40;;;;;;5054039;28;20268;-71
2022/12/07 03:42:30;;;;;;;19.35;12.00;;;5.80;80.50;;;;;;5053524;28;20277;-69
2022/12/07 03:44:59;;;;;;;18.38;11.70;;;5.80;80.40;;;;;;5065169;28;20220;-69
2022/12/07 03:47:32;;;;;;;22.08;12.63;;;5.80;80.40;;;;;;5056720;28;20209;-69
2022/12/07 03:50:06;;;;;;;21.88;11.65;;;5.70;80.30;;;;;;5056353;28;20895;-69
2022/12/07 03:52:40;;;;;;;22.13;12.70;;;5.70;80.30;;;;;;5055967;28;20211;-69
2022/12/07 03:55:13;;;;;;;21.10;11.20;;;5.70;80.40;;;;;;5058621;28;20235;-69
2022/12/07 03:57:43;;;;;;;19.75;11.50;;;5.70;80.30;;;;;;5057549;28;20617;-69
2022/12/07 04:00:12;;;;;;;21.60;12.82;;;5.70;80.40;;;;;;5061739;28;20255;-69
2022/12/07 04:02:43;;;;;;;23.95;13.25;;;5.70;80.30;;;;;;5059342;28;20670;-69
2022/12/07 04:05:11;;;;;;;24.80;12.40;;;5.70;80.40;;;;;;5059664;28;20322;-69
2022/12/07 04:07:40;;;;;;;19.52;11.23;;;5.70;80.30;;;;;;5062294;28;20677;-69
2022/12/07 04:10:09;;;;;;;19.70;11.68;;;5.70;80.40;;;;;;5063998;28;20832;-70
2022/12/07 04:12:37;;;;;;;22.15;11.65;;;5.70;80.30;;;;;;5058776;28;20212;-70
2022/12/07 04:15:20;;;;;;;19.88;11.38;;;5.70;80.40;;;;;;5060188;28;20255;-70
2022/12/07 04:17:49;;;;;;;19.90;11.85;;;5.70;80.50;;;;;;5056630;28;20293;-70
2022/12/07 04:20:17;;;;;;;19.42;12.13;;;5.70;80.50;;;;;;5059550;28;20205;-70
2022/12/07 04:22:45;;;;;;;22.23;11.85;;;5.70;80.50;;;;;;5057725;28;20342;-69
2022/12/07 04:25:13;;;;;;;21.70;11.82;;;5.70;80.40;;;;;;5060038;28;20693;-70
2022/12/07 04:27:41;;;;;;;21.08;11.90;;;5.70;80.40;;;;;;5057074;28;20204;-70
2022/12/07 04:30:10;;;;;;;22.02;12.38;;;5.70;80.30;;;;;;5059580;28;20213;-70
2022/12/07 04:32:38;;;;;;;20.88;12.63;;;5.70;80.40;;;;;;5057553;28;20235;-70
2022/12/07 04:35:08;;;;;;;20.98;11.90;;;5.70;80.50;;;;;;5060316;28;20224;-70
2022/12/07 04:37:38;;;;;;;19.35;10.25;;;5.70;80.40;;;;;;5060585;28;20207;-70
2022/12/07 04:40:10;;;;;;;17.80;9.50;;;5.70;80.30;;;;;;5058018;28;20257;-72
2022/12/07 04:42:38;;;;;;;17.92;10.40;;;5.70;80.20;;;;;;5059969;28;20748;-72
2022/12/07 04:45:08;;;;;;;17.63;11.05;;;5.70;80.20;;;;;;5059347;28;20221;-71
2022/12/07 04:47:36;;;;;;;20.17;10.13;;;5.60;80.20;;;;;;5059929;28;20204;-70
2022/12/07 04:50:04;;;;;;;16.85;10.00;;;5.60;80.30;;;;;;5059460;28;20265;-70
2022/12/07 04:52:34;;;;;;;17.13;9.82;;;5.60;80.30;;;;;;5057541;28;20291;-71
2022/12/07 04:55:02;;;;;;;18.67;11.00;;;5.60;80.30;;;;;;5060933;28;20239;-70
2022/12/07 04:57:30;;;;;;;18.98;9.82;;;5.50;80.30;;;;;;5061180;28;20307;-69
2022/12/07 04:59:58;;;;;;;14.68;9.25;;;5.50;80.30;;;;;;5057948;28;20669;-69
2022/12/07 05:02:27;;;;;;;18.35;10.27;;;5.50;80.40;;;;;;5059065;28;20297;-73
2022/12/07 05:04:55;;;;;;;18.25;11.38;;;5.50;80.40;;;;;;5057635;28;20311;-70
2022/12/07 05:07:23;;;;;;;19.67;10.52;;;5.50;80.50;;;;;;5058617;28;20875;-68
2022/12/07 05:09:52;;;;;;;18.92;11.20;;;5.60;80.50;;;;;;5062157;28;20686;-68
2022/12/07 05:12:20;;;;;;;18.98;10.98;;;5.50;80.40;;;;;;5075055;28;20553;-71
2022/12/07 05:14:48;;;;;;;20.70;10.90;;;5.50;80.40;;;;;;5058991;28;20227;-69
2022/12/07 05:17:16;;;;;;;16.35;9.88;;;5.50;80.40;;;;;;5059955;28;20203;-69
2022/12/07 05:19:44;;;;;;;19.27;11.10;;;5.50;80.50;;;;;;5059453;28;20196;-69
2022/12/07 05:22:13;;;;;;;20.92;10.88;;;5.50;80.60;;;;;;5061340;28;20261;-69
2022/12/07 05:24:41;;;;;;;18.63;11.15;;;5.60;80.50;;;;;;5058644;28;20221;-70
2022/12/07 05:27:10;;;;;;;19.10;11.05;;;5.50;80.50;;;;;;5062816;28;20200;-69
2022/12/07 05:29:38;;;;;;;17.75;11.20;;;5.50;80.60;;;;;;5060394;28;20306;-69
2022/12/07 05:32:06;;;;;;;20.88;11.48;;;5.50;80.50;;;;;;5061457;28;20209;-68
2022/12/07 05:34:34;;;;;;;18.13;10.77;;;5.50;80.50;;;;;;5058677;28;20705;-70
2022/12/07 05:37:02;;;;;;;25.00;12.13;;;5.50;80.50;;;;;;5065006;28;20204;-70
2022/12/07 05:39:30;;;;;;;22.40;11.57;;;5.50;80.50;;;;;;5069065;28;20200;-70
2022/12/07 05:42:13;;;;;;;25.58;13.13;;;5.50;80.60;;;;;;5069523;28;20204;-70
2022/12/07 05:44:44;;;;;;;20.35;11.57;;;5.50;80.60;;;;;;5069600;28;20228;-68
2022/12/07 05:47:12;;;;;;;24.90;13.50;;;5.50;80.80;;;;;;5074853;28;20655;-71
2022/12/07 05:49:40;;;;;;;23.90;13.00;;;5.50;80.70;;;;;;5072586;28;20220;-70
2022/12/07 05:52:09;;;;;;;21.88;12.02;;;5.50;80.70;;;;;;5071712;28;20200;-69
2022/12/07 05:54:37;;;;;;;26.55;13.85;;;5.50;80.80;;;;;;5066108;28;20223;-70
2022/12/07 05:57:05;;;;;;;24.13;13.23;;;5.50;80.80;;;;;;5066193;28;20205;-70
2022/12/07 05:59:32;;;;;;;22.67;12.35;;;5.50;80.90;;;;;;5068278;28;20204;-70
2022/12/07 06:02:04;;;;;;;25.02;12.63;;;5.50;80.90;;;;;;5072867;28;20579;-70
2022/12/07 06:04:35;;;;;;;23.20;13.20;;;5.50;80.80;;;;;;5065091;28;20258;-70
2022/12/07 06:07:03;;;;;;;23.83;13.30;;;5.50;80.90;;;;;;5065827;28;20196;-70
2022/12/07 06:09:32;;;;;;;30.20;13.60;;;5.50;80.90;;;;;;5062723;28;20647;-70
2022/12/07 06:14:47;;;;;;;29.10;13.15;;;5.60;81.00;;;;;;5054578;28;20749;-71
2022/12/07 06:17:16;;;;;;;25.95;13.15;;;5.60;81.00;;;;;;5059132;28;20208;-71
2022/12/07 06:19:44;;;;;;;22.48;12.40;;;5.50;80.90;;;;;;5057526;28;20212;-70
2022/12/07 06:22:13;;;;;;;23.73;13.13;;;5.50;80.80;;;;;;5053372;28;20199;-71
2022/12/07 06:24:41;;;;;;;22.58;12.48;;;5.50;80.90;;;;;;5059258;28;20224;-70
2022/12/07 06:27:09;;;;;;;26.30;12.88;;;5.50;81.00;;;;;;5052848;28;20212;-70
2022/12/07 06:29:37;;;;;;;22.60;11.88;;;5.50;81.00;;;;;;5057335;28;20233;-70
2022/12/07 06:32:06;;;;;;;19.95;11.50;;;5.50;81.00;;;;;;5053652;28;20600;-70
2022/12/07 06:34:35;;;;;;;24.65;12.23;;;5.50;81.10;;;;;;5054096;28;20866;-70
2022/12/07 06:37:04;;;;;;;20.77;10.90;;;5.50;81.20;;;;;;5052690;28;20676;-70
2022/12/07 06:39:32;;;;;;;23.67;12.90;;;5.40;81.20;;;;;;5053999;28;20211;-70
2022/12/07 06:42:00;;;;;;;21.98;11.65;;;5.40;81.20;;;;;;5070957;28;20677;-70
2022/12/07 06:44:28;;;;;;;20.95;11.23;;;5.40;81.20;;;;;;5054857;28;20235;-70
2022/12/07 06:46:56;;;;;;;20.05;10.88;;;5.40;81.40;;;;;;5072162;28;20261;-70
2022/12/07 06:49:45;;;;;;;17.40;9.95;;;5.40;81.40;;;;;;5055764;28;20310;-70
2022/12/07 06:52:13;;;;;;;20.77;8.88;;;5.40;81.40;;;;;;5055275;28;20281;-70
2022/12/07 06:54:41;;;;;;;19.60;10.20;;;5.40;81.50;;;;;;5053499;28;20279;-71
2022/12/07 06:57:09;;;;;;;19.90;10.32;;;5.40;81.40;;;;;;5058934;28;20208;-70
2022/12/07 06:59:37;;;;;;;23.23;9.70;;;5.40;81.50;;;;;;5050801;28;20250;-72
2022/12/07 07:02:05;;;;;;;17.88;10.65;;;5.50;81.40;;;;;;5056025;28;20265;-71
2022/12/07 07:04:33;;;;;;;19.83;10.23;;;5.50;81.40;;;;;;5058465;28;20760;-69
2022/12/07 07:07:03;;;;;;;19.02;9.98;;;5.50;81.50;;;;;;5058265;28;20212;-69
2022/12/07 07:09:31;;;;;;;17.55;9.30;;;5.50;81.40;;;;;;5059781;28;20219;-69
2022/12/07 07:11:59;;;;;;;17.90;9.80;;;5.50;81.30;;;;;;5058642;28;20196;-68
2022/12/07 07:14:27;;;;;;;18.02;9.40;;;5.50;81.40;;;;;;5054785;28;20264;-68
2022/12/07 07:16:55;;;;;;;17.17;10.27;;;5.50;81.50;;;;;;5058152;28;20837;-69
2022/12/07 07:19:23;;;;;;;17.80;10.52;;;5.50;81.60;;;;;;5057651;28;20258;-68
2022/12/07 07:21:51;;;;;;;18.38;9.88;;;5.50;81.60;;;;;;5059669;28;20261;-69
2022/12/07 07:24:20;;;;;;;17.83;9.48;;;5.60;81.60;;;;;;5052276;28;20613;-69
2022/12/07 07:26:48;;;;;;;19.17;9.30;;;5.60;81.60;;;;;;5054975;28;20218;-70
2022/12/07 07:29:16;;;;;;;16.58;10.27;;;5.60;81.50;;;;;;5057911;28;20196;-70
2022/12/07 07:31:44;;;;;;;18.00;9.35;;;5.60;81.60;;;;;;5058212;28;20274;-70
2022/12/07 07:34:12;;;;;;;17.33;10.07;;;5.60;81.50;;;;;;5065312;28;20277;-70
2022/12/07 07:36:40;;;;;;;17.95;9.60;;;5.60;81.80;;;;;;5059462;28;20204;-71
2022/12/07 07:39:08;;;;;;;19.00;10.48;;;5.60;81.80;;;;;;5057958;28;20213;-71
2022/12/07 07:41:37;;;;;;;16.40;9.80;;;5.70;81.80;;;;;;5058405;28;20228;-70
2022/12/07 07:44:08;;;;;;;23.63;10.85;;;5.70;81.80;;;;;;5057692;28;20215;-73
2022/12/07 07:46:36;;;;;;;15.30;9.13;;;5.70;81.70;;;;;;5060120;28;20200;-69
2022/12/07 07:49:04;;;;;;;18.70;9.75;;;5.70;81.70;;;;;;5056187;28;20258;-69
2022/12/07 07:51:32;;;;;;;15.80;9.30;;;5.70;81.70;;;;;;5057343;28;20948;-70
2022/12/07 07:54:00;;;;;;;17.15;9.48;;;5.80;81.70;;;;;;5058961;28;20261;-70
2022/12/07 07:56:28;;;;;;;15.75;9.30;;;5.80;81.60;;;;;;5057391;28;20589;-68
2022/12/07 07:58:57;;;;;;;17.42;9.30;;;5.80;81.60;;;;;;5055227;28;20230;-71
2022/12/07 08:01:25;;;;;;;14.52;9.10;;;5.80;81.60;;;;;;5060838;28;20196;-72
2022/12/07 08:03:53;;;;;;;20.13;9.23;;;5.80;81.60;;;;;;5056110;28;20218;-69
2022/12/07 08:06:21;;;;;;;13.18;8.50;;;5.70;81.60;;;;;;5060084;28;20285;-68
2022/12/07 08:08:50;;;;;;;22.10;10.10;;;5.80;81.70;;;;;;5061289;28;20211;-69
2022/12/07 08:11:24;;;;;;;16.70;9.50;;;5.80;81.80;;;;;;5058459;28;20251;-69
2022/12/07 08:13:52;;;;;;;14.27;8.85;;;5.80;81.80;;;;;;5061835;28;20192;-68
2022/12/07 08:16:21;;;;;;;14.15;8.57;;;5.80;81.80;;;;;;5063355;28;20254;-70
2022/12/07 08:18:49;;;;;;;15.35;8.65;;;5.80;81.80;;;;;;5062775;28;20208;-67
2022/12/07 08:21:17;;;;;;;16.02;9.57;;;5.90;81.80;;;;;;5055038;28;21027;-67
2022/12/07 08:23:45;;;;;;;14.15;8.40;;;5.90;81.80;;;;;;5055585;28;20202;-70
2022/12/07 08:26:15;;;;;;;15.90;8.55;;;5.90;81.80;;;;;;5062026;28;20587;-68
2022/12/07 08:28:44;;;;;;;20.13;9.43;;;5.90;81.70;;;;;;5059778;28;20605;-68
2022/12/07 08:31:15;;;;;;;15.07;9.20;;;5.90;81.70;;;;;;5059736;28;20251;-68
2022/12/07 08:33:46;;;;;;;15.40;9.27;;;5.90;81.80;;;;;;5058866;28;20654;-69
2022/12/07 08:36:15;;;;;;;13.93;8.55;;;5.90;81.80;;;;;;5060693;28;20284;-68
2022/12/07 08:38:43;;;;;;;17.35;9.70;;;5.90;81.70;;;;;;5055086;28;20305;-69
2022/12/07 08:41:32;;;;;;;15.20;9.15;;;5.90;81.80;;;;;;5056719;28;20246;-69
2022/12/07 08:44:00;;;;;;;13.80;8.00;;;5.90;81.90;;;;;;5056356;28;20923;-70
2022/12/07 08:46:36;;;;;;;17.88;10.27;;;5.90;81.90;;;;;;5059744;28;20227;-71
2022/12/07 08:49:09;;;;;;;16.90;9.60;;;5.90;81.90;;;;;;5061285;28;20799;-69
2022/12/07 08:51:37;;;;;;;13.65;9.20;;;6.00;81.90;;;;;;5058512;28;20717;-69
2022/12/07 08:54:09;;;;;;;13.63;8.68;;;6.00;81.90;;;;;;5055197;28;20647;-69
2022/12/07 08:56:38;;;;;;;16.40;10.15;;;6.00;81.90;;;;;;5059279;28;20216;-69
2022/12/07 08:59:06;;;;;;;16.27;10.50;;;6.00;81.80;;;;;;5057770;28;20666;-67
2022/12/07 09:01:35;;;;;;;15.93;9.52;;;6.00;81.80;;;;;;5057260;28;20196;-66
2022/12/07 09:04:03;;;;;;;17.38;9.70;;;6.00;81.90;;;;;;5057235;28;20457;-68
2022/12/07 09:06:32;;;;;;;18.27;10.10;;;6.00;81.90;;;;;;5057530;28;20904;-68
2022/12/07 09:09:02;;;;;;;14.50;9.35;;;6.00;82.00;;;;;;5059687;28;20207;-70
2022/12/07 09:11:30;;;;;;;14.90;9.23;;;6.00;81.90;;;;;;5055281;28;20836;-70
2022/12/07 09:13:58;;;;;;;15.43;9.18;;;6.00;82.00;;;;;;5054041;28;20203;-70
2022/12/07 09:16:26;;;;;;;15.10;9.57;;;6.10;82.00;;;;;;5061077;28;20317;-70
2022/12/07 09:18:54;;;;;;;14.90;9.00;;;6.00;81.90;;;;;;5058356;28;20580;-70
2022/12/07 09:21:22;;;;;;;16.48;10.00;;;6.10;82.00;;;;;;5058353;28;20196;-68
2022/12/07 09:23:57;;;;;;;16.88;9.98;;;6.10;81.90;;;;;;5059002;28;20216;-69
2022/12/07 09:26:25;;;;;;;19.30;10.70;;;6.10;81.90;;;;;;5059067;28;20596;-68
2022/12/07 09:28:53;;;;;;;16.52;9.55;;;6.10;81.90;;;;;;5062779;28;20203;-68
2022/12/07 09:31:21;;;;;;;14.82;8.90;;;6.00;82.00;;;;;;5063366;28;20224;-68
2022/12/07 09:33:55;;;;;;;14.15;8.52;;;6.10;82.00;;;;;;5060636;28;20204;-68
2022/12/07 09:36:23;;;;;;;15.38;8.95;;;6.10;82.00;;;;;;5056141;28;21057;-68
2022/12/07 09:38:53;;;;;;;19.50;10.63;;;6.10;82.00;;;;;;5053875;28;20256;-69
2022/12/07 09:41:23;;;;;;;16.98;10.27;;;6.10;82.00;;;;;;5055166;28;20254;-68
2022/12/07 09:43:52;;;;;;;14.63;8.95;;;6.10;81.80;;;;;;5057400;28;20246;-68
2022/12/07 09:46:21;;;;;;;21.48;10.65;;;6.10;81.80;;;;;;5056135;28;20228;-69
2022/12/07 09:48:51;;;;;;;15.20;8.88;;;6.10;82.00;;;;;;5057209;28;20211;-68
2022/12/07 09:51:21;;;;;;;15.95;8.95;;;6.10;82.00;;;;;;5054606;28;20273;-70
2022/12/07 09:53:56;;;;;;;13.50;8.18;;;6.10;82.10;;;;;;5055811;28;20218;-69
2022/12/07 09:56:25;;;;;;;18.58;9.40;;;6.10;82.10;;;;;;5056258;28;20289;-69
2022/12/07 09:59:00;;;;;;;16.52;9.00;;;6.10;82.10;;;;;;5058772;28;20238;-70
2022/12/07 10:01:32;;;;;;;16.08;8.48;;;6.10;82.10;;;;;;5053323;28;20199;-69
2022/12/07 10:04:10;;;;;;;16.05;9.52;;;6.10;82.20;;;;;;5058176;28;20200;-68
2022/12/07 10:06:38;;;;;;;14.93;10.00;;;6.20;82.10;;;;;;5056008;28;20222;-68
2022/12/07 10:09:12;;;;;;;15.77;10.05;;;6.20;82.30;;;;;;5052719;28;20239;-69
2022/12/07 10:12:03;;;;;;;17.63;9.48;;;6.20;82.30;;;;;;5055028;28;20390;-69
2022/12/07 10:14:33;;;;;;;17.95;10.60;;;6.30;82.40;;;;;;5053495;28;20246;-68
2022/12/07 10:17:35;;;;;;;14.80;8.77;;;6.30;82.40;;;;;;5054116;28;20212;-69
2022/12/07 10:20:20;;;;;;;16.50;9.82;;;6.30;82.40;;;;;;5054643;28;20246;-68
2022/12/07 10:22:59;;;;;;;14.18;9.43;;;6.30;82.30;;;;;;5054458;28;20231;-69
2022/12/07 10:25:31;;;;;;;17.70;10.38;;;6.40;82.30;;;;;;5056459;28;20227;-70
2022/12/07 10:28:11;;;;;;;17.13;9.35;;;6.30;82.10;;;;;;5054552;28;20553;-69
2022/12/07 10:30:49;;;;;;;15.57;8.77;;;6.30;82.30;;;;;;5055664;28;20208;-70
2022/12/07 10:33:30;;;;;;;18.25;10.60;;;6.30;82.30;;;;;;5053109;28;20222;-69
2022/12/07 10:35:59;;;;;;;14.52;8.95;;;6.30;82.30;;;;;;5053605;28;20227;-68
2022/12/07 10:38:30;;;;;;;15.40;9.55;;;6.30;82.30;;;;;;5055931;28;20213;-69
2022/12/07 10:41:07;;;;;;;15.05;9.98;;;6.30;82.30;;;;;;5058156;28;20230;-69
2022/12/07 10:43:35;;;;;;;15.90;9.93;;;6.40;82.30;;;;;;5052676;28;20250;-67
2022/12/07 10:46:42;;;;;;;19.45;9.70;;;6.40;82.30;;;;;;5057136;28;20708;-67
2022/12/07 10:49:31;;;;;;;17.50;10.10;;;6.40;82.30;;;;;;5057135;28;20195;-68
2022/12/07 10:52:04;;;;;;;18.45;9.85;;;6.40;82.20;;;;;;5057733;28;20234;-69
2022/12/07 10:54:42;;;;;;;16.30;9.77;;;6.40;82.30;;;;;;5057414;28;20235;-68
2022/12/07 10:57:38;;;;;;;15.20;9.05;;;6.40;82.30;;;;;;5054194;28;20205;-69
2022/12/07 11:00:15;;;;;;;17.77;9.68;;;6.50;82.30;;;;;;5057435;28;20205;-68
2022/12/07 11:03:05;;;;;;;14.88;8.63;;;6.50;82.30;;;;;;5055269;28;20195;-68
2022/12/07 11:05:43;;;;;;;19.25;9.88;;;6.50;82.20;;;;;;5052132;28;20224;-68
2022/12/07 11:08:21;;;;;;;19.25;9.50;;;6.50;82.30;;;;;;5056523;28;20208;-68
2022/12/07 11:10:56;;;;;;;18.45;11.10;;;6.50;82.30;;;;;;5055433;28;20203;-68
2022/12/07 11:13:33;;;;;;;16.63;10.23;;;6.50;82.30;;;;;;5055261;28;20216;-68
2022/12/07 11:16:16;;;;;;;15.85;9.32;;;6.50;82.30;;;;;;5055510;28;20622;-70
2022/12/07 11:18:56;;;;;;;17.75;10.13;;;6.50;82.30;;;;;;5051232;28;20195;-68
2022/12/07 11:21:30;;;;;;;12.73;8.38;;;6.60;82.30;;;;;;5055459;28;20532;-73
2022/12/07 11:24:04;;;;;;;13.98;8.32;;;6.60;82.30;;;;;;5056585;28;20196;-69
2022/12/07 11:26:57;;;;;;;13.40;8.77;;;6.60;82.30;;;;;;5056295;28;20224;-72
2022/12/07 11:29:53;;;;;;;14.05;8.27;;;6.60;82.30;;;;;;5054836;28;20262;-69
2022/12/07 11:32:31;;;;;;;13.30;7.97;;;6.70;82.30;;;;;;5054917;28;20990;-69
2022/12/07 11:35:06;;;;;;;13.93;8.77;;;6.70;82.10;;;;;;5052940;28;20720;-69
2022/12/07 11:37:36;;;;;;;16.08;8.80;;;6.70;82.30;;;;;;5051210;28;20218;-70
2022/12/07 11:40:17;;;;;;;14.60;8.48;;;6.70;82.20;;;;;;5057553;28;20208;-69
2022/12/07 11:42:52;;;;;;;15.52;7.88;;;6.70;82.10;;;;;;5056057;28;20192;-69
2022/12/07 11:45:25;;;;;;;13.43;8.45;;;6.70;82.10;;;;;;5055454;28;20262;-70
2022/12/07 11:47:59;;;;;;;12.27;7.22;;;6.70;82.20;;;;;;5053248;28;20621;-70
2022/12/07 11:50:32;;;;;;;14.07;8.18;;;6.70;82.30;;;;;;5050857;28;20270;-72
2022/12/07 11:53:04;;;;;;;11.02;7.55;;;6.80;82.20;;;;;;5053199;28;20847;-69
2022/12/07 11:55:42;;;;;;;13.50;7.47;;;6.80;82.20;;;;;;5053152;28;20232;-69
2022/12/07 11:58:22;;;;;;;12.63;7.28;;;6.80;82.10;;;;;;5057384;28;20203;-69
2022/12/07 12:00:56;;;;;;;14.80;7.15;;;6.80;82.00;;;;;;5053453;28;20266;-70
2022/12/07 12:03:31;;;;;;;10.77;6.85;;;6.80;82.10;;;;;;5051156;28;20196;-69
2022/12/07 12:05:59;;;;;;;15.45;7.70;;;6.80;82.10;;;;;;5052795;28;20250;-69
2022/12/07 12:08:32;;;;;;;12.55;6.97;;;6.80;82.00;;;;;;5053379;28;20250;-71
2022/12/07 12:11:35;;;;;;;12.60;7.53;;;6.80;82.10;;;;;;5056423;28;20221;-70
2022/12/07 12:14:21;;;;;;;12.60;6.90;;;6.80;81.90;;;;;;5055802;28;20265;-70
2022/12/07 12:17:23;;;;;;;14.02;7.13;;;6.80;81.90;;;;;;5051825;28;20633;-67
2022/12/07 12:20:07;;;;;;;10.20;6.30;;;6.80;81.90;;;;;;4177631;28;10000654;-67
2022/12/07 12:22:39;;;;;;;11.05;6.35;;;6.80;81.70;;;;;;5056642;28;20197;-68
2022/12/07 12:25:16;;;;;;;13.60;7.18;;;6.80;81.70;;;;;;5058156;28;20224;-69
2022/12/07 12:27:47;;;;;;;11.05;6.07;;;6.80;81.80;;;;;;5061118;28;20260;-69
2022/12/07 12:30:36;;;;;;;12.98;6.35;;;6.80;81.70;;;;;;5059528;28;20555;-69
2022/12/07 12:33:28;;;;;;;11.98;6.45;;;6.80;81.70;;;;;;5056260;28;20216;-68
2022/12/07 12:36:21;;;;;;;13.98;7.03;;;6.80;81.70;;;;;;5057728;28;20244;-68
2022/12/07 12:38:52;;;;;;;12.15;5.30;;;6.80;81.60;;;;;;5055435;28;20284;-68
2022/12/07 12:42:08;;;;;;;11.57;5.35;;;6.70;81.70;;;;;;5057760;28;20196;-70
2022/12/07 12:44:42;;;;;;;11.05;5.60;;;6.80;81.60;;;;;;5056994;28;20223;-70
2022/12/07 12:47:52;;;;;;;12.13;6.35;;;6.70;81.60;;;;;;5058233;28;20203;-68
2022/12/07 12:50:28;;;;;;;10.75;5.85;;;6.70;81.60;;;;;;5060212;28;20257;-69
2022/12/07 12:53:02;;;;;;;10.23;5.95;;;6.70;81.60;;;;;;5054399;28;20216;-68
2022/12/07 12:56:09;;;;;;;14.15;6.43;;;6.70;81.60;;;;;;5053718;28;20285;-70
2022/12/07 12:58:45;;;;;;;13.15;5.20;;;6.70;81.50;;;;;;5063178;28;20205;-69
2022/12/07 13:01:41;;;;;;;10.10;5.45;;;6.70;81.50;;;;;;5052004;28;20258;-70
2022/12/07 13:04:38;;;;;;;9.10;5.15;;;6.70;81.50;;;;;;5055246;28;20675;-69
2022/12/07 13:07:13;;;;;;;8.45;5.18;;;6.70;81.60;;;;;;5057885;28;20701;-69
2022/12/07 13:09:45;;;;;;;10.27;5.22;;;6.70;81.60;;;;;;5058590;28;20210;-69
2022/12/07 13:12:16;;;;;;;9.63;5.35;;;6.70;81.60;;;;;;5053965;28;20815;-69